createdAt,value
2019-01-23T00:02:01.354Z,-1.89
2019-01-23T00:04:33.314Z,-1.96
2019-01-23T00:07:04.924Z,-2.00
2019-01-23T00:09:36.534Z,-1.89
2019-01-23T00:12:07.874Z,-1.88
2019-01-23T00:14:39.842Z,-1.95
2019-01-23T00:17:11.241Z,-2.00
2019-01-23T00:19:42.661Z,-1.86
2019-01-23T00:22:14.080Z,-1.92
2019-01-23T00:24:45.443Z,-1.87
2019-01-23T00:27:16.730Z,-1.82
2019-01-23T00:29:48.414Z,-1.89
2019-01-23T00:32:19.774Z,-1.92
2019-01-23T00:34:51.134Z,-1.86
2019-01-23T00:37:22.486Z,-1.90
2019-01-23T00:39:53.845Z,-1.97
2019-01-23T00:42:25.226Z,-2.01
2019-01-23T00:44:56.703Z,-1.97
2019-01-23T00:47:28.077Z,-1.95
2019-01-23T00:49:59.636Z,-1.85
2019-01-23T00:52:31.057Z,-1.86
2019-01-23T00:55:02.508Z,-1.92
2019-01-23T00:57:33.862Z,-1.91
2019-01-23T01:00:09.939Z,-1.71
2019-01-23T01:02:41.517Z,-1.61
2019-01-23T01:05:13.563Z,-1.70
2019-01-23T01:07:45.084Z,-1.73
2019-01-23T01:10:19.627Z,-1.78
2019-01-23T01:12:51.050Z,-1.88
2019-01-23T01:15:22.570Z,-1.92
2019-01-23T01:17:53.989Z,-2.02
2019-01-23T01:20:26.425Z,-2.26
2019-01-23T01:22:57.776Z,-2.44
2019-01-23T01:25:29.257Z,-2.54
2019-01-23T01:28:00.727Z,-2.65
2019-01-23T01:30:32.312Z,-2.69
2019-01-23T01:33:03.799Z,-2.64
2019-01-23T01:35:35.223Z,-2.51
2019-01-23T01:38:06.598Z,-2.51
2019-01-23T01:40:38.036Z,-2.43
2019-01-23T01:43:09.589Z,-2.46
2019-01-23T01:45:40.968Z,-2.41
2019-01-23T01:48:12.420Z,-2.61
2019-01-23T01:50:43.894Z,-2.69
2019-01-23T01:53:15.388Z,-2.73
2019-01-23T01:55:46.818Z,-2.61
2019-01-23T01:58:18.282Z,-2.51
2019-01-23T02:00:49.655Z,-2.44
2019-01-23T02:03:21.247Z,-2.59
2019-01-23T02:05:52.694Z,-2.65
2019-01-23T02:08:24.168Z,-2.64
2019-01-23T02:10:55.608Z,-2.75
2019-01-23T02:13:26.940Z,-2.80
2019-01-23T02:15:58.502Z,-2.79
2019-01-23T02:18:30.926Z,-2.64
2019-01-23T02:21:02.562Z,-2.48
2019-01-23T02:23:33.912Z,-2.49
2019-01-23T02:26:05.373Z,-2.53
2019-01-23T02:28:36.791Z,-2.49
2019-01-23T02:31:08.303Z,-2.49
2019-01-23T02:33:42.225Z,-2.55
2019-01-23T02:36:13.602Z,-2.56
2019-01-23T02:38:44.916Z,-2.59
2019-01-23T02:41:16.448Z,-2.57
2019-01-23T02:43:47.817Z,-2.52
2019-01-23T02:46:19.327Z,-2.54
2019-01-23T02:48:50.682Z,-2.54
2019-01-23T02:51:22.174Z,-2.54
2019-01-23T02:53:53.447Z,-2.55
2019-01-23T02:56:24.789Z,-2.52
2019-01-23T02:58:57.382Z,-2.56
2019-01-23T03:01:28.927Z,-2.47
2019-01-23T03:04:00.405Z,-2.34
2019-01-23T03:06:31.858Z,-2.43
2019-01-23T03:09:04.482Z,-2.50
2019-01-23T03:11:36.674Z,-2.42
2019-01-23T03:14:08.097Z,-2.42
2019-01-23T03:16:39.409Z,-2.33
2019-01-23T03:19:11.004Z,-2.30
2019-01-23T03:21:42.371Z,-2.39
2019-01-23T03:24:13.728Z,-2.47
2019-01-23T03:26:45.228Z,-2.46
2019-01-23T03:29:16.584Z,-2.52
2019-01-23T03:31:47.947Z,-2.53
2019-01-23T03:34:19.361Z,-2.56
2019-01-23T03:36:50.731Z,-2.59
2019-01-23T03:39:22.203Z,-2.56
2019-01-23T03:41:53.473Z,-2.49
2019-01-23T03:44:24.902Z,-2.53
2019-01-23T03:46:56.342Z,-2.58
2019-01-23T03:49:27.729Z,-2.49
2019-01-23T03:51:59.125Z,-2.54
2019-01-23T03:54:30.396Z,-2.59
2019-01-23T03:57:01.995Z,-2.60
2019-01-23T03:59:33.518Z,-2.59
2019-01-23T04:02:05.022Z,-2.58
2019-01-23T04:04:36.443Z,-2.56
2019-01-23T04:07:14.822Z,-2.59
2019-01-23T04:09:46.211Z,-2.55
2019-01-23T04:12:17.758Z,-2.49
2019-01-23T04:14:49.172Z,-2.48
2019-01-23T04:17:20.866Z,-2.40
2019-01-23T04:19:52.274Z,-2.24
2019-01-23T04:22:23.634Z,-2.27
2019-01-23T04:24:55.126Z,-2.30
2019-01-23T04:27:26.542Z,-2.31
2019-01-23T04:29:57.945Z,-2.32
2019-01-23T04:32:29.914Z,-2.33
2019-01-23T04:35:01.537Z,-2.37
2019-01-23T04:37:33.050Z,-2.37
2019-01-23T04:40:07.440Z,-2.38
2019-01-23T04:42:39.411Z,-2.40
2019-01-23T04:45:16.392Z,-2.35
2019-01-23T04:47:47.999Z,-2.35
2019-01-23T04:50:20.531Z,-2.27
2019-01-23T04:52:53.470Z,-2.23
2019-01-23T04:55:24.902Z,-2.23
2019-01-23T04:57:56.312Z,-2.26
2019-01-23T05:00:29.438Z,-2.20
2019-01-23T05:03:01.026Z,-2.25
2019-01-23T05:05:37.366Z,-2.28
2019-01-23T05:08:08.665Z,-2.33
2019-01-23T05:10:40.091Z,-2.29
2019-01-23T05:13:11.709Z,-2.19
2019-01-23T05:15:43.327Z,-2.03
2019-01-23T05:18:14.703Z,-2.16
2019-01-23T05:20:46.176Z,-2.22
2019-01-23T05:23:17.441Z,-2.19
2019-01-23T05:25:48.864Z,-2.26
2019-01-23T05:28:20.357Z,-2.31
2019-01-23T05:30:51.919Z,-2.22
2019-01-23T05:33:23.330Z,-2.16
2019-01-23T05:35:54.756Z,-2.29
2019-01-23T05:38:26.075Z,-2.26
2019-01-23T05:40:57.531Z,-2.21
2019-01-23T05:43:28.924Z,-2.27
2019-01-23T05:46:00.326Z,-2.23
2019-01-23T05:48:32.701Z,-2.27
2019-01-23T05:51:04.032Z,-2.29
2019-01-23T05:53:35.353Z,-2.33
2019-01-23T05:56:07.194Z,-2.43
2019-01-23T05:58:38.665Z,-2.46
2019-01-23T06:01:09.994Z,-2.47
2019-01-23T06:03:41.361Z,-2.43
2019-01-23T06:06:15.975Z,-2.47
2019-01-23T06:08:50.083Z,-2.31
2019-01-23T06:11:21.603Z,-2.22
2019-01-23T06:13:53.037Z,-2.19
2019-01-23T06:16:24.341Z,-2.14
2019-01-23T06:18:55.583Z,-2.10
2019-01-23T06:21:26.965Z,-2.10
2019-01-23T06:23:58.382Z,-2.13
2019-01-23T06:26:29.663Z,-2.10
2019-01-23T06:29:01.194Z,-2.19
2019-01-23T06:31:32.627Z,-2.12
2019-01-23T06:34:04.064Z,-2.22
2019-01-23T06:40:42.784Z,-2.20
2019-01-23T06:43:14.153Z,-2.29
2019-01-23T06:45:45.690Z,-2.21
2019-01-23T06:48:17.087Z,-2.09
2019-01-23T06:50:48.403Z,-2.25
2019-01-23T06:53:19.779Z,-2.39
2019-01-23T06:55:51.373Z,-2.43
2019-01-23T06:58:22.763Z,-2.46
2019-01-23T07:00:58.071Z,-2.40
2019-01-23T07:03:27.468Z,-2.41
2019-01-23T07:05:58.802Z,-2.38
2019-01-23T07:08:32.566Z,-2.32
2019-01-23T07:11:04.008Z,-2.31
2019-01-23T07:13:35.424Z,-2.38
2019-01-23T07:16:06.675Z,-2.39
2019-01-23T07:18:38.131Z,-2.41
2019-01-23T07:21:09.378Z,-2.35
2019-01-23T07:23:40.746Z,-2.26
2019-01-23T07:26:12.101Z,-2.22
2019-01-23T07:28:49.168Z,-2.16
2019-01-23T07:31:18.557Z,-2.14
2019-01-23T07:33:49.681Z,-2.15
2019-01-23T07:36:23.475Z,-2.16
2019-01-23T07:38:54.318Z,-2.08
2019-01-23T07:41:26.502Z,-2.10
2019-01-23T07:43:57.970Z,-2.04
2019-01-23T07:46:30.777Z,-2.00
2019-01-23T07:49:02.205Z,-1.85
2019-01-23T07:51:33.442Z,-1.83
2019-01-23T07:54:04.886Z,-1.87
2019-01-23T07:56:36.527Z,-1.78
2019-01-23T07:59:10.010Z,-1.72
2019-01-23T08:01:42.417Z,-1.68
2019-01-23T08:04:13.930Z,-1.68
2019-01-23T08:06:45.303Z,-1.70
2019-01-23T08:09:16.735Z,-1.73
2019-01-23T08:11:48.114Z,-1.71
2019-01-23T08:14:19.654Z,-1.75
2019-01-23T08:16:51.019Z,-1.69
2019-01-23T08:19:22.345Z,-1.70
2019-01-23T08:21:53.810Z,-1.72
2019-01-23T08:24:25.185Z,-1.71
2019-01-23T08:26:56.575Z,-1.71
2019-01-23T08:29:31.090Z,-1.69
2019-01-23T08:32:02.393Z,-1.58
2019-01-23T08:34:33.850Z,-1.54
2019-01-23T08:37:05.237Z,-1.57
2019-01-23T08:39:36.638Z,-1.55
2019-01-23T08:42:08.979Z,-1.55
2019-01-23T08:44:40.427Z,-1.59
2019-01-23T08:47:11.716Z,-1.59
2019-01-23T08:49:43.085Z,-1.59
2019-01-23T08:52:14.400Z,-1.61
2019-01-23T08:54:45.767Z,-1.60
2019-01-23T08:57:17.093Z,-1.60
2019-01-23T08:59:48.513Z,-1.59
2019-01-23T09:02:19.910Z,-1.52
2019-01-23T09:04:51.313Z,-1.53
2019-01-23T09:07:22.773Z,-1.50
2019-01-23T09:09:54.212Z,-1.47
2019-01-23T09:12:25.712Z,-1.44
2019-01-23T09:14:57.110Z,-1.42
2019-01-23T09:17:28.791Z,-1.41
2019-01-23T09:20:00.240Z,-1.37
2019-01-23T09:22:31.719Z,-1.36
2019-01-23T09:25:03.183Z,-1.38
2019-01-23T09:27:34.761Z,-1.37
2019-01-23T09:30:13.814Z,-1.36
2019-01-23T09:33:07.663Z,-1.26
2019-01-23T09:36:04.531Z,-1.26
2019-01-23T09:38:58.712Z,-1.26
2019-01-23T09:42:15.951Z,-1.29
2019-01-23T09:45:25.361Z,-1.31
2019-01-23T09:48:32.499Z,-1.28
2019-01-23T09:51:33.981Z,-1.19
2019-01-23T09:54:10.128Z,-1.15
2019-01-23T09:56:44.968Z,-1.14
2019-01-23T09:59:16.332Z,-1.18
2019-01-23T10:01:47.784Z,-1.13
2019-01-23T10:04:19.097Z,-1.13
2019-01-23T10:06:51.544Z,-1.20
2019-01-23T10:09:22.925Z,-1.16
2019-01-23T10:11:54.229Z,-1.14
2019-01-23T10:14:25.678Z,-1.14
2019-01-23T10:16:56.984Z,-1.15
2019-01-23T10:19:31.347Z,-1.11
2019-01-23T10:22:03.916Z,-1.07
2019-01-23T10:24:36.075Z,-1.03
2019-01-23T10:27:07.692Z,-1.04
2019-01-23T10:29:39.190Z,-0.99
2019-01-23T10:32:10.568Z,-0.93
2019-01-23T10:34:42.065Z,-1.01
2019-01-23T10:37:19.382Z,-0.98
2019-01-23T10:39:46.532Z,-0.97
2019-01-23T10:42:17.979Z,-0.92
2019-01-23T10:44:49.378Z,-0.84
2019-01-23T10:47:20.902Z,-0.80
2019-01-23T10:49:52.283Z,-0.80
2019-01-23T10:52:23.719Z,-0.79
2019-01-23T10:54:55.106Z,-0.79
2019-01-23T10:57:26.568Z,-0.82
2019-01-23T10:59:57.943Z,-0.84
2019-01-23T11:02:29.348Z,-0.82
2019-01-23T11:05:00.734Z,-0.82
2019-01-23T11:07:32.230Z,-0.79
2019-01-23T11:10:09.601Z,-0.71
2019-01-23T11:12:41.097Z,-0.68
2019-01-23T11:15:12.582Z,-0.65
2019-01-23T11:17:44.280Z,-0.67
2019-01-23T11:20:18.551Z,-0.61
2019-01-23T11:22:50.164Z,-0.50
2019-01-23T11:25:21.643Z,-0.46
2019-01-23T11:27:56.844Z,-0.39
2019-01-23T11:30:28.554Z,-0.45
2019-01-23T11:33:00.023Z,-0.45
2019-01-23T11:35:31.412Z,-0.48
2019-01-23T11:38:02.990Z,-0.42
2019-01-23T11:40:34.375Z,-0.42
2019-01-23T11:43:05.808Z,-0.44
2019-01-23T11:45:40.372Z,-0.40
2019-01-23T11:48:11.823Z,-0.34
2019-01-23T11:50:43.122Z,-0.26
2019-01-23T11:53:14.566Z,-0.19
2019-01-23T11:55:45.788Z,-0.19
2019-01-23T11:58:17.112Z,-0.17
2019-01-23T12:00:48.470Z,-0.16
2019-01-23T12:03:21.037Z,-0.08
2019-01-23T12:05:52.709Z,-0.11
2019-01-23T12:08:24.322Z,-0.09
2019-01-23T12:10:57.987Z,-0.06
2019-01-23T12:13:29.615Z,-0.01
2019-01-23T12:16:00.977Z,-0.13
2019-01-23T12:18:33.064Z,-0.18
2019-01-23T12:21:05.139Z,-0.13
2019-01-23T12:23:39.129Z,-0.08
2019-01-23T12:26:10.856Z,-0.03
2019-01-23T12:28:49.723Z,0.03
2019-01-23T12:31:21.097Z,0.03
2019-01-23T12:33:52.576Z,0.09
2019-01-23T12:36:23.883Z,0.01
2019-01-23T12:38:56.592Z,0.04
2019-01-23T12:41:30.398Z,0.12
2019-01-23T12:44:05.838Z,0.22
2019-01-23T12:46:37.126Z,0.16
2019-01-23T12:49:08.482Z,0.12
2019-01-23T12:51:42.383Z,0.04
2019-01-23T12:54:15.886Z,0.00
2019-01-23T12:56:47.540Z,0.00
2019-01-23T12:59:19.771Z,0.06
2019-01-23T13:01:51.151Z,0.07
2019-01-23T13:04:25.962Z,0.08
2019-01-23T13:06:57.286Z,0.08
2019-01-23T13:09:34.149Z,-0.01
2019-01-23T13:12:06.211Z,0.01
2019-01-23T13:14:37.839Z,0.02
2019-01-23T13:17:52.493Z,0.09
2019-01-23T13:20:26.691Z,0.08
2019-01-23T13:23:07.626Z,0.10
2019-01-23T13:25:40.132Z,0.06
2019-01-23T13:28:13.580Z,-0.03
2019-01-23T13:30:45.455Z,-0.05
2019-01-23T13:33:17.009Z,-0.03
2019-01-23T13:35:48.753Z,-0.02
2019-01-23T13:38:27.235Z,-0.02
2019-01-23T13:40:59.151Z,-0.04
2019-01-23T13:43:36.647Z,0.01
2019-01-23T13:46:11.332Z,0.02
2019-01-23T13:48:50.134Z,0.01
2019-01-23T13:51:21.677Z,-0.05
2019-01-23T13:53:52.993Z,-0.04
2019-01-23T13:56:26.134Z,-0.01
2019-01-23T13:58:57.973Z,-0.07
2019-01-23T14:01:34.339Z,-0.02
2019-01-23T14:04:10.720Z,0.02
2019-01-23T14:06:42.626Z,-0.01
2019-01-23T14:09:14.132Z,-0.05
2019-01-23T14:11:45.558Z,-0.03
2019-01-23T14:14:16.869Z,-0.04
2019-01-23T14:16:48.349Z,0.00
2019-01-23T14:19:19.645Z,0.02
2019-01-23T14:21:51.086Z,-0.03
2019-01-23T14:24:23.357Z,-0.06
2019-01-23T14:26:57.916Z,-0.07
2019-01-23T14:29:30.220Z,-0.05
2019-01-23T14:32:03.964Z,-0.04
2019-01-23T14:34:35.400Z,-0.03
2019-01-23T14:37:07.784Z,-0.17
2019-01-23T14:39:39.111Z,-0.23
2019-01-23T14:42:10.715Z,-0.28
2019-01-23T14:44:42.063Z,-0.26
2019-01-23T14:47:13.538Z,-0.26
2019-01-23T14:49:44.966Z,-0.23
2019-01-23T14:52:16.593Z,-0.24
2019-01-23T14:54:48.286Z,-0.28
2019-01-23T14:57:20.795Z,-0.34
2019-01-23T15:00:16.025Z,-0.36
2019-01-23T15:02:47.467Z,-0.38
2019-01-23T15:05:19.073Z,-0.39
2019-01-23T15:07:50.527Z,-0.32
2019-01-23T15:10:31.731Z,-0.33
2019-01-23T15:13:03.493Z,-0.34
2019-01-23T15:15:34.941Z,-0.35
2019-01-23T15:18:06.424Z,-0.37
2019-01-23T15:20:39.636Z,-0.42
2019-01-23T15:23:13.100Z,-0.45
2019-01-23T15:25:44.281Z,-0.48
2019-01-23T15:28:23.751Z,-0.54
2019-01-23T15:30:55.315Z,-0.59
2019-01-23T15:33:26.773Z,-0.64
2019-01-23T15:35:58.616Z,-0.59
2019-01-23T15:38:30.151Z,-0.59
2019-01-23T15:41:09.759Z,-0.56
2019-01-23T15:43:37.828Z,-0.55
2019-01-23T15:46:09.341Z,-0.55
2019-01-23T15:48:40.673Z,-0.59
2019-01-23T15:51:12.278Z,-0.66
2019-01-23T15:53:46.331Z,-0.69
2019-01-23T15:56:17.881Z,-0.70
2019-01-23T15:58:49.234Z,-0.73
2019-01-23T16:01:24.171Z,-0.76
2019-01-23T16:03:55.423Z,-0.76
2019-01-23T16:06:26.810Z,-0.76
2019-01-23T16:08:58.063Z,-0.74
2019-01-23T16:11:29.366Z,-0.74
2019-01-23T16:14:39.137Z,-0.71
2019-01-23T16:34:09.072Z,-0.81
2019-01-23T16:36:39.994Z,-0.81
2019-01-23T16:39:11.558Z,-0.89
2019-01-23T16:41:43.032Z,-0.92
2019-01-23T16:44:14.880Z,-0.94
2019-01-23T16:46:46.414Z,-0.95
2019-01-23T16:49:17.945Z,-0.95
2019-01-23T16:51:51.440Z,-0.98
2019-01-23T16:54:22.949Z,-0.99
2019-01-23T16:56:54.556Z,-1.00
2019-01-23T16:59:26.273Z,-1.01
2019-01-23T17:01:57.816Z,-1.02
2019-01-23T17:04:29.426Z,-1.03
2019-01-23T17:07:00.891Z,-1.02
2019-01-23T17:09:32.358Z,-1.03
2019-01-23T17:12:09.213Z,-1.06
2019-01-23T17:14:37.186Z,-1.07
2019-01-23T17:17:08.559Z,-1.09
2019-01-23T17:19:40.101Z,-1.10
2019-01-23T17:22:18.043Z,-1.08
2019-01-23T17:24:49.782Z,-1.08
2019-01-23T17:27:21.362Z,-1.12
2019-01-23T17:29:53.357Z,-1.13
2019-01-23T17:32:25.199Z,-1.11
2019-01-23T17:34:59.852Z,-1.13
2019-01-23T17:37:32.223Z,-1.16
2019-01-23T17:40:04.568Z,-1.17
2019-01-23T17:42:38.211Z,-1.18
2019-01-23T17:45:14.274Z,-1.23
2019-01-23T17:47:45.820Z,-1.24
2019-01-23T17:50:23.570Z,-1.31
2019-01-23T17:52:55.014Z,-1.37
2019-01-23T17:55:32.806Z,-1.40
2019-01-23T17:58:05.734Z,-1.40
2019-01-23T18:00:39.186Z,-1.39
2019-01-23T18:03:37.835Z,-1.39
2019-01-23T18:06:09.354Z,-1.39
2019-01-23T18:08:40.875Z,-1.40
2019-01-23T18:11:12.245Z,-1.35
2019-01-23T18:13:43.965Z,-1.39
2019-01-23T18:16:18.143Z,-1.41
2019-01-23T18:18:51.398Z,-1.42
2019-01-23T18:21:23.164Z,-1.47
2019-01-23T18:23:54.556Z,-1.46
2019-01-23T18:26:25.944Z,-1.45
2019-01-23T18:29:24.279Z,-1.44
2019-01-23T18:32:10.946Z,-1.42
2019-01-23T18:35:18.039Z,-1.44
2019-01-23T18:38:02.985Z,-1.47
2019-01-23T18:41:08.626Z,-1.50
2019-01-23T18:43:56.589Z,-1.52
2019-01-23T18:47:22.655Z,-1.57
2019-01-23T18:50:13.520Z,-1.53
2019-01-23T18:52:50.056Z,-1.52
2019-01-23T18:55:28.140Z,-1.53
2019-01-23T18:57:59.615Z,-1.55
2019-01-23T19:00:31.251Z,-1.54
2019-01-23T19:03:06.973Z,-1.53
2019-01-23T19:05:36.375Z,-1.55
2019-01-23T19:08:10.458Z,-1.51
2019-01-23T19:10:42.105Z,-1.53
2019-01-23T19:13:14.356Z,-1.54
2019-01-23T19:15:46.287Z,-1.56
2019-01-23T19:18:17.975Z,-1.56
2019-01-23T19:20:49.511Z,-1.56
2019-01-23T19:23:21.192Z,-1.59
2019-01-23T19:25:52.951Z,-1.61
2019-01-23T19:28:24.665Z,-1.62
2019-01-23T19:30:57.334Z,-1.61
2019-01-23T19:33:30.863Z,-1.63
2019-01-23T19:36:02.400Z,-1.62
2019-01-23T19:38:34.053Z,-1.66
2019-01-23T19:41:05.877Z,-1.65
2019-01-23T19:43:37.535Z,-1.67
2019-01-23T19:46:09.048Z,-1.66
2019-01-23T19:48:40.575Z,-1.68
2019-01-23T19:51:12.012Z,-1.69
2019-01-23T19:53:43.582Z,-1.67
2019-01-23T19:56:15.257Z,-1.68
2019-01-23T19:58:46.866Z,-1.65
2019-01-23T20:01:18.513Z,-1.66
2019-01-23T20:03:50.089Z,-1.68
2019-01-23T20:06:21.953Z,-1.68
2019-01-23T20:08:53.792Z,-1.65
2019-01-23T20:11:25.470Z,-1.69
2019-01-23T20:13:56.975Z,-1.68
2019-01-23T20:16:28.739Z,-1.67
2019-01-23T20:19:02.498Z,-1.68
2019-01-23T20:21:34.101Z,-1.68
2019-01-23T20:24:05.677Z,-1.65
2019-01-23T20:26:37.286Z,-1.62
2019-01-23T20:29:08.988Z,-1.64
2019-01-23T20:31:40.450Z,-1.66
2019-01-23T20:34:11.981Z,-1.65
2019-01-23T20:36:43.396Z,-1.66
2019-01-23T20:39:15.058Z,-1.65
2019-01-23T20:41:46.618Z,-1.67
2019-01-23T20:44:18.139Z,-1.68
2019-01-23T20:46:49.600Z,-1.68
2019-01-23T20:49:21.119Z,-1.69
2019-01-23T20:51:52.859Z,-1.70
2019-01-23T20:54:24.289Z,-1.70
2019-01-23T20:56:55.719Z,-1.71
2019-01-23T20:59:27.526Z,-1.75
2019-01-23T21:01:59.135Z,-1.77
2019-01-23T21:04:30.589Z,-1.78
2019-01-23T21:07:02.466Z,-1.82
2019-01-23T21:09:33.830Z,-1.80
2019-01-23T21:12:05.334Z,-1.80
2019-01-23T21:14:36.628Z,-1.82
2019-01-23T21:17:07.986Z,-1.83
2019-01-23T21:19:39.465Z,-1.84
2019-01-23T21:22:10.798Z,-1.86
2019-01-23T21:24:43.265Z,-1.84
2019-01-23T21:27:14.791Z,-1.82
2019-01-23T21:29:47.133Z,-1.77
2019-01-23T21:32:18.778Z,-1.83
2019-01-23T21:34:50.250Z,-1.83
2019-01-23T21:37:21.766Z,-1.83
2019-01-23T21:39:53.202Z,-1.83
2019-01-23T21:42:24.711Z,-1.84
2019-01-23T21:44:57.592Z,-1.83
2019-01-23T21:47:28.983Z,-1.82
2019-01-23T21:50:00.489Z,-1.84
2019-01-23T21:52:31.987Z,-1.75
2019-01-23T21:55:03.639Z,-1.77
2019-01-23T21:57:35.112Z,-1.77
2019-01-23T22:00:14.198Z,-1.81
2019-01-23T22:02:45.714Z,-1.83
2019-01-23T22:05:17.411Z,-1.90
2019-01-23T22:07:50.595Z,-1.93
2019-01-23T22:10:22.151Z,-1.95
2019-01-23T22:12:53.646Z,-1.95
2019-01-23T22:15:28.977Z,-1.96
2019-01-23T22:18:00.586Z,-1.94
2019-01-23T22:20:32.101Z,-1.97
2019-01-23T22:23:03.633Z,-1.94
2019-01-23T22:25:35.141Z,-1.90
2019-01-23T22:28:06.842Z,-1.94
2019-01-23T22:30:40.080Z,-1.94
2019-01-23T22:33:11.602Z,-1.98
2019-01-23T22:35:43.380Z,-2.00
2019-01-23T22:38:14.833Z,-2.04
2019-01-23T22:40:46.176Z,-2.04
2019-01-23T22:43:17.647Z,-2.07
2019-01-23T22:45:49.834Z,-2.13
2019-01-23T22:48:21.260Z,-2.09
2019-01-23T22:50:54.360Z,-2.13
2019-01-23T22:53:25.710Z,-2.11
2019-01-23T22:55:57.087Z,-2.11
2019-01-23T22:58:28.476Z,-2.09
2019-01-23T23:01:10.494Z,-2.08
2019-01-23T23:03:42.073Z,-2.09
2019-01-23T23:06:13.494Z,-2.11
2019-01-23T23:08:48.074Z,-2.13
2019-01-23T23:11:19.433Z,-2.13
2019-01-23T23:13:50.939Z,-2.12
2019-01-23T23:16:22.643Z,-2.14
2019-01-23T23:18:54.134Z,-2.16
2019-01-23T23:21:25.611Z,-2.16
2019-01-23T23:23:57.051Z,-2.16
2019-01-23T23:26:28.576Z,-2.21
2019-01-23T23:29:00.435Z,-2.20
2019-01-23T23:31:31.790Z,-2.20
2019-01-23T23:34:09.783Z,-2.24
2019-01-23T23:36:36.296Z,-2.23
2019-01-23T23:39:09.345Z,-2.26
2019-01-23T23:41:40.953Z,-2.25
2019-01-23T23:44:12.492Z,-2.21
2019-01-23T23:46:43.874Z,-2.16
2019-01-23T23:49:15.300Z,-2.15
2019-01-23T23:51:46.659Z,-2.15
2019-01-23T23:54:18.362Z,-2.17
2019-01-23T23:56:49.779Z,-2.18
2019-01-23T23:59:21.125Z,-2.19
